createdAt,value
2023-02-12T00:02:48.447Z,4.50
2023-02-12T00:05:50.631Z,4.13
2023-02-12T00:08:53.764Z,4.68
2023-02-12T00:11:57.126Z,3.97
2023-02-12T00:14:59.878Z,4.53
2023-02-12T00:18:03.167Z,5.00
2023-02-12T00:21:07.074Z,3.63
2023-02-12T00:24:09.983Z,4.22
2023-02-12T00:27:13.693Z,4.80
2023-02-12T00:30:16.693Z,4.80
2023-02-12T00:33:18.989Z,4.65
2023-02-12T00:36:21.633Z,4.75
2023-02-12T00:39:24.491Z,5.13
2023-02-12T00:42:26.995Z,4.57
2023-02-12T00:45:30.077Z,4.35
2023-02-12T00:48:33.783Z,4.40
2023-02-12T00:51:36.664Z,4.78
2023-02-12T00:54:39.701Z,5.85
2023-02-12T00:57:43.223Z,4.60
2023-02-12T01:00:46.318Z,4.43
2023-02-12T01:03:49.061Z,4.18
2023-02-12T01:06:52.372Z,4.65
2023-02-12T01:09:54.923Z,4.18
2023-02-12T01:12:57.628Z,5.25
2023-02-12T01:16:00.796Z,4.45
2023-02-12T01:19:02.984Z,5.10
2023-02-12T01:22:05.311Z,6.07
2023-02-12T01:25:08.058Z,4.30
2023-02-12T01:28:10.685Z,5.05
2023-02-12T01:31:13.415Z,4.38
2023-02-12T01:34:16.018Z,4.88
2023-02-12T01:37:19.410Z,5.05
2023-02-12T01:40:21.935Z,4.45
2023-02-12T01:43:24.490Z,4.05
2023-02-12T01:46:27.039Z,4.20
2023-02-12T01:49:29.841Z,4.80
2023-02-12T01:52:32.727Z,4.75
2023-02-12T01:55:35.472Z,4.57
2023-02-12T01:58:38.649Z,4.00
2023-02-12T02:01:41.168Z,4.00
2023-02-12T02:04:43.944Z,4.25
2023-02-12T02:07:46.999Z,4.10
2023-02-12T02:10:49.700Z,4.32
2023-02-12T02:13:53.628Z,4.75
2023-02-12T02:16:56.431Z,4.38
2023-02-12T02:19:58.902Z,4.82
2023-02-12T02:23:01.148Z,4.32
2023-02-12T02:26:04.222Z,4.32
2023-02-12T02:29:07.387Z,4.45
2023-02-12T02:32:11.028Z,5.03
2023-02-12T02:35:13.902Z,5.18
2023-02-12T02:38:16.711Z,5.28
2023-02-12T02:41:19.863Z,4.38
2023-02-12T02:44:23.227Z,4.47
2023-02-12T02:47:26.022Z,5.45
2023-02-12T02:50:28.960Z,4.63
2023-02-12T02:53:31.667Z,4.75
2023-02-12T02:56:34.747Z,4.55
2023-02-12T02:59:38.099Z,5.25
2023-02-12T03:02:41.092Z,4.90
2023-02-12T03:05:44.068Z,5.57
2023-02-12T03:08:46.873Z,5.05
2023-02-12T03:11:50.009Z,5.20
2023-02-12T03:14:52.736Z,5.03
2023-02-12T03:17:56.145Z,4.95
2023-02-12T03:20:59.257Z,5.40
2023-02-12T03:24:02.302Z,4.70
2023-02-12T03:27:04.836Z,4.82
2023-02-12T03:30:07.868Z,5.28
2023-02-12T03:33:11.315Z,5.22
2023-02-12T03:36:15.156Z,5.20
2023-02-12T03:39:18.378Z,5.05
2023-02-12T03:42:20.892Z,5.50
2023-02-12T03:45:23.516Z,5.22
2023-02-12T03:48:26.588Z,5.55
2023-02-12T03:51:29.460Z,4.85
2023-02-12T03:57:51.355Z,5.30
2023-02-12T04:00:54.142Z,5.32
2023-02-12T04:03:56.689Z,5.55
2023-02-12T04:06:59.192Z,5.10
2023-02-12T04:10:02.310Z,5.05
2023-02-12T04:13:05.227Z,5.45
2023-02-12T04:16:10.545Z,5.38
2023-02-12T04:19:14.068Z,5.47
2023-02-12T04:22:17.001Z,5.55
2023-02-12T04:25:20.482Z,4.53
2023-02-12T04:28:22.852Z,4.25
2023-02-12T04:31:26.260Z,4.72
2023-02-12T04:34:29.610Z,4.10
2023-02-12T04:37:32.908Z,4.60
2023-02-12T04:40:36.245Z,4.90
2023-02-12T04:43:39.796Z,4.28
2023-02-12T04:46:41.992Z,4.88
2023-02-12T04:49:44.532Z,4.72
2023-02-12T04:52:47.462Z,5.45
2023-02-12T04:55:50.819Z,5.35
2023-02-12T04:58:53.318Z,4.88
2023-02-12T05:01:55.595Z,4.28
2023-02-12T05:04:57.982Z,5.32
2023-02-12T05:08:01.129Z,4.45
2023-02-12T05:11:03.944Z,4.93
2023-02-12T05:14:07.330Z,5.32
2023-02-12T05:17:10.770Z,5.15
2023-02-12T05:20:13.809Z,5.30
2023-02-12T05:23:16.273Z,6.07
2023-02-12T05:26:18.333Z,5.78
2023-02-12T05:29:21.515Z,5.68
2023-02-12T05:32:24.568Z,4.85
2023-02-12T05:35:27.539Z,5.80
2023-02-12T05:38:30.457Z,4.82
2023-02-12T05:41:32.719Z,5.03
2023-02-12T05:44:35.277Z,5.60
2023-02-12T05:47:38.194Z,5.00
2023-02-12T05:50:40.886Z,5.18
2023-02-12T05:53:43.192Z,6.32
2023-02-12T05:56:46.845Z,5.18
2023-02-12T05:59:49.391Z,6.30
2023-02-12T06:02:52.335Z,6.28
2023-02-12T06:05:55.665Z,5.07
2023-02-12T06:08:58.218Z,5.85
2023-02-12T06:12:01.202Z,5.32
2023-02-12T06:15:04.232Z,6.20
2023-02-12T06:18:07.276Z,5.35
2023-02-12T06:21:10.122Z,6.13
2023-02-12T06:24:12.845Z,5.25
2023-02-12T06:27:16.225Z,6.68
2023-02-12T06:30:19.465Z,6.63
2023-02-12T06:33:22.616Z,7.03
2023-02-12T06:36:24.839Z,5.85
2023-02-12T06:39:27.412Z,5.57
2023-02-12T06:42:29.946Z,6.15
2023-02-12T06:45:32.698Z,6.47
2023-02-12T06:48:35.414Z,6.10
2023-02-12T06:51:38.170Z,5.32
2023-02-12T06:54:40.998Z,6.25
2023-02-12T06:57:44.199Z,6.38
2023-02-12T07:00:47.933Z,7.22
2023-02-12T07:03:51.317Z,5.75
2023-02-12T07:06:53.864Z,6.10
2023-02-12T07:09:56.493Z,5.30
2023-02-12T07:12:59.423Z,5.78
2023-02-12T07:16:02.100Z,5.32
2023-02-12T07:19:05.878Z,6.32
2023-02-12T07:22:08.318Z,5.97
2023-02-12T07:25:11.296Z,6.75
2023-02-12T07:28:14.338Z,6.28
2023-02-12T07:31:16.678Z,5.38
2023-02-12T07:34:19.875Z,6.53
2023-02-12T07:37:23.663Z,6.15
2023-02-12T07:40:26.140Z,6.15
2023-02-12T07:43:28.323Z,6.22
2023-02-12T07:46:30.536Z,6.93
2023-02-12T07:49:33.270Z,5.60
2023-02-12T07:52:35.817Z,6.30
2023-02-12T07:55:39.257Z,6.00
2023-02-12T07:58:42.344Z,6.72
2023-02-12T08:01:44.942Z,5.97
2023-02-12T08:04:48.318Z,5.45
2023-02-12T08:07:51.608Z,5.60
2023-02-12T08:10:54.193Z,4.95
2023-02-12T08:13:57.185Z,5.53
2023-02-12T08:16:59.938Z,4.95
2023-02-12T08:20:02.193Z,5.78
2023-02-12T08:23:06.077Z,5.10
2023-02-12T08:26:09.688Z,5.57
2023-02-12T08:29:12.350Z,5.22
2023-02-12T08:32:15.166Z,4.82
2023-02-12T08:35:18.330Z,4.63
2023-02-12T08:38:21.580Z,5.65
2023-02-12T08:41:24.513Z,5.10
2023-02-12T08:44:27.565Z,6.15
2023-02-12T08:47:31.409Z,5.13
2023-02-12T08:50:33.860Z,4.40
2023-02-12T08:53:36.460Z,5.20
2023-02-12T08:56:39.724Z,5.57
2023-02-12T08:59:42.504Z,5.45
2023-02-12T09:02:45.828Z,5.22
2023-02-12T09:05:49.175Z,4.65
2023-02-12T09:08:52.598Z,5.20
2023-02-12T09:11:56.104Z,5.40
2023-02-12T09:14:58.912Z,6.18
2023-02-12T09:18:01.723Z,5.07
2023-02-12T09:21:04.263Z,4.97
2023-02-12T09:24:06.300Z,4.72
2023-02-12T09:27:08.488Z,5.18
2023-02-12T09:30:11.835Z,5.70
2023-02-12T09:33:15.322Z,5.63
2023-02-12T09:36:18.312Z,4.65
2023-02-12T09:39:21.213Z,6.15
2023-02-12T09:42:24.339Z,5.45
2023-02-12T09:45:27.536Z,5.60
2023-02-12T09:48:30.447Z,5.68
2023-02-12T09:51:33.365Z,5.45
2023-02-12T09:54:35.926Z,5.55
2023-02-12T09:57:38.792Z,5.05
2023-02-12T10:00:41.625Z,5.30
2023-02-12T10:03:44.919Z,5.65
2023-02-12T10:06:48.161Z,5.22
2023-02-12T10:09:51.366Z,5.68
2023-02-12T10:12:54.440Z,5.65
2023-02-12T10:15:58.220Z,5.10
2023-02-12T10:19:01.729Z,4.65
2023-02-12T10:22:05.238Z,5.35
2023-02-12T10:25:07.750Z,5.82
2023-02-12T10:28:10.681Z,6.00
2023-02-12T10:31:14.612Z,4.78
2023-02-12T10:34:17.937Z,5.28
2023-02-12T10:37:21.264Z,4.82
2023-02-12T10:40:25.114Z,6.22
2023-02-12T10:43:27.680Z,5.00
2023-02-12T10:46:30.458Z,5.68
2023-02-12T10:49:33.018Z,5.82
2023-02-12T10:52:35.435Z,5.13
2023-02-12T10:55:38.084Z,6.40
2023-02-12T10:58:41.140Z,6.00
2023-02-12T11:01:44.137Z,5.55
2023-02-12T11:04:47.398Z,5.70
2023-02-12T11:07:51.373Z,5.45
2023-02-12T11:10:54.584Z,6.10
2023-02-12T11:13:57.844Z,5.80
2023-02-12T11:17:00.802Z,6.45
2023-02-12T11:20:04.067Z,5.32
2023-02-12T11:23:07.069Z,6.90
2023-02-12T11:26:09.743Z,5.93
2023-02-12T11:29:12.522Z,6.10
2023-02-12T11:32:16.564Z,5.70
2023-02-12T11:35:20.484Z,5.53
2023-02-12T11:38:24.614Z,6.15
2023-02-12T11:41:28.643Z,6.88
2023-02-12T11:44:31.603Z,5.78
2023-02-12T11:47:35.170Z,6.28
2023-02-12T11:50:38.104Z,6.50
2023-02-12T11:53:40.106Z,5.32
2023-02-12T11:56:43.017Z,5.75
2023-02-12T11:59:46.130Z,6.38
2023-02-12T12:02:49.000Z,6.55
2023-02-12T12:05:51.737Z,5.35
2023-02-12T12:08:55.596Z,6.20
2023-02-12T12:11:58.275Z,6.03
2023-02-12T12:15:01.454Z,5.82
2023-02-12T12:18:05.171Z,6.57
2023-02-12T12:21:08.112Z,6.85
2023-02-12T12:24:10.859Z,6.13
2023-02-12T12:27:13.574Z,5.95
2023-02-12T12:30:16.562Z,6.38
2023-02-12T12:33:19.718Z,6.47
2023-02-12T12:36:22.674Z,6.65
2023-02-12T12:39:26.314Z,6.72
2023-02-12T12:42:30.015Z,6.00
2023-02-12T12:45:33.478Z,7.32
2023-02-12T12:48:36.791Z,5.90
2023-02-12T12:51:39.316Z,7.10
2023-02-12T12:54:42.455Z,6.65
2023-02-12T12:57:45.874Z,6.43
2023-02-12T13:00:49.195Z,7.03
2023-02-12T13:03:52.584Z,7.47
2023-02-12T13:06:56.536Z,7.00
2023-02-12T13:10:00.207Z,6.72
2023-02-12T13:13:04.238Z,6.38
2023-02-12T13:16:08.199Z,6.43
2023-02-12T13:19:10.575Z,6.90
2023-02-12T13:22:13.404Z,6.75
2023-02-12T13:25:16.542Z,6.95
2023-02-12T13:28:18.979Z,6.45
2023-02-12T13:31:32.477Z,6.40
2023-02-12T13:34:35.479Z,6.35
2023-02-12T13:37:38.412Z,7.07
2023-02-12T13:40:42.050Z,6.10
2023-02-12T13:43:44.725Z,6.45
2023-02-12T13:46:48.240Z,7.30
2023-02-12T13:49:50.794Z,6.88
2023-02-12T13:52:53.704Z,7.18
2023-02-12T13:55:56.291Z,6.65
2023-02-12T13:58:58.892Z,6.85
2023-02-12T14:02:01.868Z,6.03
2023-02-12T14:05:05.169Z,6.60
2023-02-12T14:08:08.518Z,7.25
2023-02-12T14:11:11.158Z,6.60
2023-02-12T14:14:13.644Z,7.40
2023-02-12T14:17:16.353Z,6.78
2023-02-12T14:20:19.147Z,6.30
2023-02-12T14:23:21.981Z,8.40
2023-02-12T14:26:24.868Z,6.53
2023-02-12T14:29:28.200Z,7.57
2023-02-12T14:32:30.652Z,6.25
2023-02-12T14:35:33.561Z,7.18
2023-02-12T14:38:47.230Z,7.10
2023-02-12T14:41:50.783Z,7.00
2023-02-12T14:44:53.554Z,6.50
2023-02-12T14:47:56.635Z,6.30
2023-02-12T14:50:59.347Z,6.70
2023-02-12T14:54:02.197Z,6.38
2023-02-12T14:57:04.582Z,6.25
2023-02-12T15:00:07.680Z,7.35
2023-02-12T15:03:10.766Z,7.18
2023-02-12T15:06:13.952Z,7.75
2023-02-12T15:09:17.719Z,6.63
2023-02-12T15:12:20.601Z,6.68
2023-02-12T15:15:23.142Z,6.90
2023-02-12T15:18:27.162Z,6.82
2023-02-12T15:21:30.885Z,7.57
2023-02-12T15:24:34.677Z,6.78
2023-02-12T15:27:37.913Z,6.00
2023-02-12T15:30:40.434Z,6.85
2023-02-12T15:33:43.898Z,6.05
2023-02-12T15:36:46.935Z,6.35
2023-02-12T15:39:50.012Z,6.90
2023-02-12T15:42:52.789Z,6.85
2023-02-12T15:45:56.204Z,6.85
2023-02-12T15:48:59.039Z,6.25
2023-02-12T15:52:02.105Z,6.10
2023-02-12T15:55:05.465Z,5.75
2023-02-12T15:58:08.767Z,6.82
2023-02-12T16:01:11.671Z,6.40
2023-02-12T16:04:15.063Z,6.35
2023-02-12T16:07:18.678Z,5.70
2023-02-12T16:10:21.409Z,6.72
2023-02-12T16:13:23.851Z,5.43
2023-02-12T16:16:27.123Z,6.60
2023-02-12T16:19:29.931Z,6.03
2023-02-12T16:22:33.133Z,5.97
2023-02-12T16:25:36.059Z,5.95
2023-02-12T16:28:38.878Z,5.65
2023-02-12T16:31:42.207Z,6.43
2023-02-12T16:34:46.208Z,6.20
2023-02-12T16:37:50.249Z,5.25
2023-02-12T16:40:54.082Z,5.82
2023-02-12T16:43:56.983Z,5.78
2023-02-12T16:47:00.120Z,6.68
2023-02-12T16:50:02.642Z,5.70
2023-02-12T16:53:05.696Z,5.90
2023-02-12T16:56:09.069Z,6.57
2023-02-12T16:59:11.693Z,5.60
2023-02-12T17:02:15.067Z,5.93
2023-02-12T17:05:18.542Z,5.80
2023-02-12T17:08:21.670Z,5.95
2023-02-12T17:11:24.477Z,5.78
2023-02-12T17:14:27.002Z,5.70
2023-02-12T17:17:29.918Z,6.05
2023-02-12T17:20:32.925Z,6.20
2023-02-12T17:23:36.787Z,6.03
2023-02-12T17:26:39.958Z,5.97
2023-02-12T17:29:43.385Z,5.85
2023-02-12T17:32:46.295Z,6.15
2023-02-12T17:35:49.351Z,5.28
2023-02-12T17:38:52.011Z,5.95
2023-02-12T17:41:54.680Z,5.88
2023-02-12T17:44:58.044Z,6.05
2023-02-12T17:48:01.287Z,5.82
2023-02-12T17:51:04.089Z,5.38
2023-02-12T17:54:06.363Z,5.07
2023-02-12T17:57:09.334Z,5.68
2023-02-12T18:00:12.085Z,5.18
2023-02-12T18:03:14.380Z,5.03
2023-02-12T18:06:16.996Z,4.95
2023-02-12T18:09:19.587Z,4.53
2023-02-12T18:12:22.759Z,4.63
2023-02-12T18:15:25.713Z,4.63
2023-02-12T18:18:28.046Z,4.80
2023-02-12T18:21:30.294Z,4.68
2023-02-12T18:24:33.333Z,5.22
2023-02-12T18:27:36.499Z,4.32
2023-02-12T18:30:40.253Z,4.85
2023-02-12T18:33:43.076Z,5.93
2023-02-12T18:36:46.122Z,4.40
2023-02-12T18:39:49.571Z,4.68
2023-02-12T18:42:52.483Z,4.13
2023-02-12T18:45:54.703Z,5.20
2023-02-12T18:48:57.390Z,5.15
2023-02-12T18:51:59.395Z,4.32
2023-02-12T18:55:02.552Z,5.03
2023-02-12T18:58:05.523Z,5.53
2023-02-12T19:01:08.296Z,5.22
2023-02-12T19:04:11.292Z,5.32
2023-02-12T19:07:14.677Z,4.45
2023-02-12T19:10:18.522Z,4.90
2023-02-12T19:13:22.435Z,5.10
2023-02-12T19:16:25.441Z,4.97
2023-02-12T19:19:28.456Z,4.88
2023-02-12T19:22:31.581Z,4.75
2023-02-12T19:25:35.394Z,5.00
2023-02-12T19:28:38.457Z,5.30
2023-02-12T19:31:41.486Z,5.07
2023-02-12T19:34:44.716Z,5.05
2023-02-12T19:37:48.747Z,5.43
2023-02-12T19:40:51.965Z,5.53
2023-02-12T19:43:54.882Z,5.00
2023-02-12T19:46:57.484Z,5.78
2023-02-12T19:50:00.490Z,5.82
2023-02-12T19:53:03.164Z,6.47
2023-02-12T19:56:05.860Z,6.15
2023-02-12T19:59:08.415Z,6.18
2023-02-12T20:02:11.388Z,5.90
2023-02-12T20:05:14.321Z,6.10
2023-02-12T20:08:17.318Z,6.05
2023-02-12T20:11:20.041Z,5.07
2023-02-12T20:14:23.051Z,5.78
2023-02-12T20:17:26.375Z,5.63
2023-02-12T20:20:29.608Z,6.13
2023-02-12T20:23:33.042Z,6.40
2023-02-12T20:26:36.162Z,5.60
2023-02-12T20:29:39.531Z,6.60
2023-02-12T20:32:42.500Z,6.85
2023-02-12T20:35:45.077Z,6.45
2023-02-12T20:38:48.017Z,6.57
2023-02-12T20:41:50.701Z,6.18
2023-02-12T20:44:53.823Z,6.68
2023-02-12T20:47:56.948Z,6.18
2023-02-12T20:50:59.278Z,5.95
2023-02-12T20:54:01.907Z,6.60
2023-02-12T20:57:04.938Z,5.70
2023-02-12T21:00:08.697Z,5.78
2023-02-12T21:03:11.383Z,6.22
2023-02-12T21:06:14.252Z,6.63
2023-02-12T21:09:16.779Z,6.40
2023-02-12T21:12:19.418Z,5.95
2023-02-12T21:15:22.369Z,6.00
2023-02-12T21:18:25.231Z,5.85
2023-02-12T21:21:28.216Z,6.07
2023-02-12T21:24:30.888Z,5.47
2023-02-12T21:27:34.026Z,5.43
2023-02-12T21:30:37.888Z,6.47
2023-02-12T21:33:41.199Z,6.43
2023-02-12T21:36:43.684Z,5.05
2023-02-12T21:39:46.830Z,4.75
2023-02-12T21:42:50.362Z,5.03
2023-02-12T21:45:53.062Z,5.55
2023-02-12T21:48:56.463Z,5.32
2023-02-12T21:51:59.741Z,6.30
2023-02-12T21:55:03.532Z,5.57
2023-02-12T21:58:06.512Z,6.13
2023-02-12T22:01:09.882Z,5.85
2023-02-12T22:04:13.515Z,5.70
2023-02-12T22:07:16.328Z,6.28
2023-02-12T22:10:19.126Z,4.82
2023-02-12T22:13:22.321Z,6.03
2023-02-12T22:16:26.322Z,6.00
2023-02-12T22:19:29.484Z,5.50
2023-02-12T22:22:32.370Z,5.60
2023-02-12T22:25:36.244Z,5.63
2023-02-12T22:28:39.958Z,6.13
2023-02-12T22:31:43.366Z,6.30
2023-02-12T22:34:46.064Z,5.93
2023-02-12T22:37:49.149Z,5.82
2023-02-12T22:40:52.425Z,6.43
2023-02-12T22:43:55.583Z,5.78
2023-02-12T22:46:58.380Z,5.50
2023-02-12T22:50:01.502Z,5.78
2023-02-12T22:53:04.567Z,6.38
2023-02-12T22:56:07.405Z,6.22
2023-02-12T22:59:10.317Z,6.03
2023-02-12T23:02:12.341Z,6.22
2023-02-12T23:05:15.030Z,6.60
2023-02-12T23:08:17.904Z,6.57
2023-02-12T23:11:21.456Z,6.00
2023-02-12T23:14:24.422Z,6.70
2023-02-12T23:17:27.657Z,6.95
2023-02-12T23:20:30.838Z,6.40
2023-02-12T23:23:33.983Z,6.63
2023-02-12T23:26:37.790Z,6.38
2023-02-12T23:29:40.781Z,7.05
2023-02-12T23:32:43.360Z,6.30
2023-02-12T23:35:46.329Z,6.82
2023-02-12T23:38:49.326Z,6.40
2023-02-12T23:41:52.555Z,7.07
2023-02-12T23:44:56.868Z,6.22
2023-02-12T23:48:00.192Z,7.30
2023-02-12T23:51:02.977Z,6.75
2023-02-12T23:54:05.922Z,6.93
2023-02-12T23:57:08.870Z,6.95
